Bei Facebook empfehlenBei Twitter postenGoogle plusPinterest

Das Wetter im Erzgebirge am 18.06.2015

Wetter und Klima am 18.06.2015 Holzhau im Erzgebirge (630m ü.NN)
Letzte gemessene Temperatur und Uhrzeit der Messung23:45:00 Uhr10.70 °C
Temperatur (Maximum / Höchstwert) und Uhrzeit der Messung17:45:00 Uhr16.40 °C
Temperatur (Minimum / Tiefstwert) und Uhrzeit der Messung05:30:008.40 °C
Errechneter Absolutwert der Temperaturschwankungen zwischen Tmin und Tmax des Tages8.00 K
Errechnete Tagesmitteltemperatur11.78854 °C
Gesamt - Niederschlag des Tages (in flüssiger Form)1.56 Liter / m²
Luftdruck (Maximum / Höchstwert) und Zeitpunkt der Messung00:00:00 Uhr1016.80 hPa
Luftdruck (Minimum / Tiefstwert) und Zeitpunkt der Messung19:00:00 Uhr1010.40 hPa
Errechneter Absolutwert der Luftdruckschwankungen des Tages6.40 hPa
Höchste gemessene Windgeschwindigkeit und Uhrzeit der Messung13:45:00 Uhr3.96 km/h
Errechnete Windhäufigkeit in Relation zu den Messwerten des Tages1.04167 %
Niedrigste Windkühle (Windchill) und Zeitpunkt der Messung05:30:00 Uhr8.40 °C
Taupunkt (Maximum / Höchstwert) und Uhrzeit der Messung17:15:00 Uhr14.00 °C
Taupunkt (Minimum / Tiefstwert) und Uhrzeit der Messung00:00:005.40 °C
Anzahl der automatisch eingelesenen Messwerte 96

Detaillierte Wetter- und Klima- Messwerte für den 18.06.2015 in Holzhau im Erzgebirge (630m ü.NN)
ZeitTemperaturLuftdruckRel. LuftfeuchteWindWindrichtungWindchillTaupunktNiederschlag l/m²
23:45:0010.70 °C1011.50 hPa89.00 %9.00 °C1.56
23:30:0010.80 °C1011.30 hPa89.00 %9.10 °C1.56
23:15:0010.90 °C1011.20 hPa89.00 %9.20 °C1.56
23:00:0010.90 °C1011.40 hPa88.00 %9.00 °C1.56
22:45:0010.90 °C1011.30 hPa88.00 %9.00 °C1.56
22:30:0011.00 °C1011.30 hPa88.00 %9.10 °C1.56
22:15:0011.20 °C1011.10 hPa88.00 %9.30 °C1.56
22:00:0011.40 °C1011.10 hPa89.00 %9.70 °C1.56
21:45:0011.60 °C1011.00 hPa89.00 %9.90 °C1.56
21:30:0011.80 °C1011.00 hPa88.00 %9.90 °C1.56
21:15:0012.00 °C1010.90 hPa88.00 %10.10 °C1.56
21:00:0012.30 °C1010.70 hPa88.00 %10.40 °C1.56
20:45:0012.60 °C1010.70 hPa89.00 %10.80 °C1.56
20:30:0013.00 °C1010.70 hPa89.00 %11.20 °C1.56
20:15:0013.20 °C1010.70 hPa89.00 %11.40 °C1.56
20:00:0013.20 °C1010.70 hPa89.00 %11.40 °C1.56
19:45:0013.20 °C1010.70 hPa89.00 %11.40 °C1.56
19:30:0013.30 °C1010.80 hPa88.00 %11.40 °C1.56
19:15:0013.60 °C1010.60 hPa87.00 %11.50 °C1.56
19:00:0013.90 °C1010.40 hPa86.00 %11.60 °C1.56
18:45:0014.40 °C1010.60 hPa84.00 %11.70 °C1.56
18:30:0015.10 °C1010.60 hPa83.00 %12.20 °C1.56
18:15:0015.90 °C1010.40 hPa81.00 %12.60 °C1.56
18:00:0016.30 °C1010.40 hPa82.00 %13.20 °C1.56
17:45:0016.40 °C1010.40 hPa82.00 %13.30 °C1.56
17:30:0016.40 °C1010.40 hPa83.00 %13.50 °C1.56
17:15:0016.20 °C1010.50 hPa87.00 %14.00 °C1.56
17:00:0014.90 °C1010.70 hPa89.00 %13.10 °C1.56
16:45:0014.10 °C1010.90 hPa89.00 %12.30 °C1.56
16:30:0013.80 °C1010.90 hPa90.00 %12.20 °C1.56
16:15:0013.60 °C1010.90 hPa90.00 %12.00 °C1.56
16:00:0013.40 °C1011.40 hPa90.00 %11.80 °C1.56
15:45:0013.40 °C1011.40 hPa90.00 %11.80 °C1.56
15:30:0013.30 °C1011.30 hPa90.00 %11.70 °C1.56
15:15:0013.50 °C1011.40 hPa90.00 %11.90 °C1.56
15:00:0013.50 °C1011.30 hPa90.00 %11.90 °C1.56
14:45:0013.20 °C1011.40 hPa90.00 %11.60 °C1.56
14:30:0013.20 °C1011.50 hPa89.00 %11.40 °C1.56
14:15:0013.40 °C1011.70 hPa88.00 %11.50 °C1.56
14:00:0013.90 °C1011.70 hPa87.00 %11.80 °C1.56
13:45:0014.10 °C1011.70 hPa86.00 %3.96 km/hWNW14.10 °C11.80 °C1.56
13:30:0014.30 °C1011.70 hPa86.00 %12.00 °C1.56
13:15:0014.70 °C1011.70 hPa85.00 %12.20 °C1.56
13:00:0014.90 °C1011.60 hPa85.00 %12.40 °C1.56
12:45:0014.90 °C1011.60 hPa87.00 %12.80 °C1.56
12:30:0013.80 °C1011.90 hPa88.00 %11.80 °C1.56
12:15:0013.20 °C1012.10 hPa88.00 %11.30 °C1.56
12:00:0013.20 °C1012.00 hPa88.00 %11.30 °C1.56
11:45:0013.30 °C1012.10 hPa88.00 %11.40 °C1.56
11:30:0012.80 °C1012.10 hPa89.00 %11.00 °C1.56
11:15:0012.30 °C1012.20 hPa89.00 %10.50 °C1.56
11:00:0011.90 °C1012.40 hPa88.00 %10.00 °C1.56
10:45:0011.90 °C1012.60 hPa87.00 %9.80 °C1.56
10:30:0011.90 °C1012.80 hPa86.00 %9.60 °C1.56
10:15:0012.30 °C1012.80 hPa84.00 %9.70 °C1.04
10:00:0012.60 °C1012.80 hPa83.00 %9.80 °C0.52
09:45:0012.80 °C1012.80 hPa82.00 %9.80 °C0.52
09:30:0012.90 °C1012.80 hPa81.00 %9.70 °C0.52
09:15:0013.50 °C1013.00 hPa80.00 %10.10 °C0.52
09:00:0013.60 °C1012.80 hPa81.00 %10.40 °C0.52
08:45:0013.10 °C1013.00 hPa84.00 %10.50 °C0.52
08:30:0011.90 °C1012.90 hPa87.00 %9.80 °C0.52
08:15:0011.00 °C1013.30 hPa88.00 %9.10 °C0.52
08:00:0010.60 °C1013.40 hPa88.00 %8.70 °C0.52
07:45:0010.60 °C1013.20 hPa88.00 %8.70 °C0.52
07:30:0010.60 °C1013.20 hPa88.00 %8.70 °C0.52
07:15:0010.40 °C1013.40 hPa89.00 %8.70 °C0.52
07:00:0010.10 °C1013.60 hPa90.00 %8.50 °C0.52
06:45:009.40 °C1013.70 hPa90.00 %7.80 °C0.52
06:30:009.10 °C1013.70 hPa89.00 %7.40 °C0.52
06:15:008.90 °C1013.70 hPa89.00 %7.20 °C0.52
06:00:008.60 °C1013.90 hPa89.00 %6.90 °C0.52
05:45:008.50 °C1013.80 hPa89.00 %6.80 °C0.52
05:30:008.40 °C1013.80 hPa88.00 %6.50 °C0.52
05:15:008.40 °C1014.20 hPa88.00 %6.50 °C0.52
05:00:008.40 °C1014.10 hPa87.00 %6.40 °C 
04:45:008.50 °C1014.40 hPa86.00 %6.30 °C 
04:30:008.50 °C1014.50 hPa86.00 %6.30 °C 
04:15:008.50 °C1014.70 hPa85.00 %6.10 °C 
04:00:008.60 °C1014.80 hPa84.00 %6.10 °C 
03:45:008.60 °C1014.70 hPa83.00 %5.90 °C 
03:30:008.90 °C1014.90 hPa81.00 %5.80 °C 
03:15:009.20 °C1015.00 hPa79.00 %5.80 °C 
03:00:009.40 °C1015.10 hPa79.00 %5.90 °C 
02:45:009.30 °C1015.30 hPa79.00 %5.90 °C 
02:30:009.30 °C1015.50 hPa79.00 %5.90 °C 
02:15:009.30 °C1015.60 hPa79.00 %5.90 °C 
02:00:009.30 °C1015.80 hPa79.00 %5.90 °C 
01:45:009.20 °C1016.00 hPa79.00 %5.80 °C 
01:30:009.20 °C1016.10 hPa79.00 %5.80 °C 
01:15:009.00 °C1016.20 hPa80.00 %5.70 °C 
01:00:008.90 °C1016.50 hPa79.00 %5.50 °C 
00:45:008.90 °C1016.60 hPa79.00 %5.50 °C 
00:30:008.90 °C1016.70 hPa79.00 %5.50 °C 
00:15:008.90 °C1016.70 hPa79.00 %5.50 °C 
00:00:009.00 °C1016.80 hPa78.00 %5.40 °C 

Permanenter Link zu dieser Seite: Wetter im Erzgebirge am 18.06.2015
Performance-Info: Die Erstellung der Seite / Statistik(en) / Tabelle(n) erforderte 5 Datenbankserver-Abfrage(n) und dauerte 86 Millisekunden. (Dieser Messwert ist von der Gesamt-Auslastung des Servers abhängig.)
Erzgebirge - Wetter | Erzgebirge - Wetter (Mobilgeräte) | Komplette Klimadatenbank